This is the latest recevied weather packets stored in our database for station/object N9OJR. If no packets are shown the sender has not sent any weather packets the latest 10 day(s).
| Time | Temp. | Humidity | Pressure | Rain* | Wind** | Luminosity | Snow |
|---|---|---|---|---|---|---|---|
| 1778202332 | 7.22° C | 70% | 1009.3 hPa | 0 mm | - | 0 W/m² | - |
| 1778202030 | 7.22° C | 67% | 1009.2 hPa | 0 mm | - | 0 W/m² | - |
| 1778201726 | 7.78° C | 65% | 1009.6 hPa | 0 mm | - | 0 W/m² | - |
| 1778201423 | 8.33° C | 64% | 1009.2 hPa | 0 mm | - | 0 W/m² | - |
| 1778201119 | 8.89° C | 62% | 1009.1 hPa | 0 mm | - | 0 W/m² | - |
| 1778200816 | 8.89° C | 62% | 1009.5 hPa | 0 mm | - | 0 W/m² | - |
| 1778200512 | 9.44° C | 58% | 1009.1 hPa | 0 mm | - | 0 W/m² | - |
| 1778200210 | 10° C | 57% | 1009.1 hPa | 0 mm | - | 0 W/m² | - |
| 1778199906 | 10.56° C | 56% | 1009.1 hPa | 0 mm | - | 3 W/m² | - |
| 1778199603 | 10.56° C | 54% | 1009 hPa | 0 mm | - | 5 W/m² | - |
| 1778199298 | 10.56° C | 53% | 1009.2 hPa | 0 mm | - | 8 W/m² | - |
| 1778198995 | 11.11° C | 51% | 1008.9 hPa | 0 mm | - | 11 W/m² | - |
| 1778198685 | 11.67° C | 50% | 1009 hPa | 0 mm | - | 14 W/m² | - |
| 1778198383 | 11.67° C | 51% | 1009 hPa | 0 mm | - | 18 W/m² | - |
| 1778198079 | 12.22° C | 49% | 1008.9 hPa | 0 mm | - | 23 W/m² | - |
| 1778197777 | 12.22° C | 48% | 1008.8 hPa | 0 mm | - | 29 W/m² | - |
| 1778197473 | 12.22° C | 49% | 1008.7 hPa | 0 mm | - | 38 W/m² | - |
| 1778197170 | 12.78° C | 48% | 1008.7 hPa | 0 mm | - | 39 W/m² | - |
| 1778196867 | 13.33° C | 46% | 1008.7 hPa | 0 mm | - | 41 W/m² | - |
| 1778196565 | 12.78° C | 47% | 1008.7 hPa | 0 mm | - | 37 W/m² | - |
| 1778196261 | 12.78° C | 48% | 1008.8 hPa | 0 mm | - | 43 W/m² | - |
| 1778195959 | 13.33° C | 47% | 1008.8 hPa | 0 mm | - | 46 W/m² | - |
| 1778195655 | 13.33° C | 48% | 1008.7 hPa | 0 mm | - | 50 W/m² | - |
| 1778195352 | 13.33° C | 47% | 1008.8 hPa | 0 mm | - | 78 W/m² | - |
| 1778195049 | 12.78° C | 46% | 1008.9 hPa | 0 mm | - | 85 W/m² | - |
* Rain latest hour (hover to see other rain measurements)
** Current wind speed in m/s (hover to see current wind gust speed)